createdAt,value
2023-01-16T00:01:58.433Z,10.60
2023-01-16T00:04:26.109Z,11.93
2023-01-16T00:06:53.417Z,8.32
2023-01-16T00:09:20.842Z,8.38
2023-01-16T00:11:50.894Z,8.43
2023-01-16T00:14:18.342Z,7.05
2023-01-16T00:16:45.598Z,8.02
2023-01-16T00:19:12.958Z,8.05
2023-01-16T00:21:40.348Z,7.55
2023-01-16T00:24:08.916Z,7.47
2023-01-16T00:26:36.158Z,9.35
2023-01-16T00:29:03.493Z,10.13
2023-01-16T00:31:30.997Z,9.55
2023-01-16T00:33:58.335Z,9.07
2023-01-16T00:36:25.716Z,8.75
2023-01-16T00:38:53.462Z,9.95
2023-01-16T00:41:20.978Z,9.50
2023-01-16T00:43:48.391Z,9.65
2023-01-16T00:46:15.752Z,9.55
2023-01-16T00:48:45.805Z,8.90
2023-01-16T00:51:13.094Z,8.93
2023-01-16T00:53:40.386Z,9.75
2023-01-16T00:56:07.913Z,11.77
2023-01-16T00:58:35.897Z,11.40
2023-01-16T01:01:03.602Z,12.07
2023-01-16T01:03:30.953Z,11.38
2023-01-16T01:05:58.239Z,10.63
2023-01-16T01:08:25.471Z,10.10
2023-01-16T01:10:53.572Z,10.52
2023-01-16T01:13:20.818Z,10.43
2023-01-16T01:15:48.271Z,11.82
2023-01-16T01:18:15.714Z,11.82
2023-01-16T01:20:42.986Z,13.50
2023-01-16T01:23:10.219Z,12.73
2023-01-16T01:25:39.543Z,11.90
2023-01-16T01:28:06.842Z,12.30
2023-01-16T01:30:34.228Z,11.63
2023-01-16T01:33:01.609Z,10.73
2023-01-16T01:35:29.188Z,11.73
2023-01-16T01:37:56.474Z,11.02
2023-01-16T01:40:23.740Z,12.48
2023-01-16T01:42:55.050Z,11.52
2023-01-16T01:48:14.944Z,9.00
2023-01-16T01:50:47.939Z,12.20
2023-01-16T01:53:22.315Z,11.48
2023-01-16T01:55:49.560Z,11.43
2023-01-16T01:58:22.848Z,10.25
2023-01-16T02:00:51.717Z,9.63
2023-01-16T02:03:29.270Z,11.52
2023-01-16T02:05:58.021Z,11.57
2023-01-16T02:11:01.108Z,9.77
2023-01-16T02:13:28.631Z,9.40
2023-01-16T02:16:15.676Z,10.52
2023-01-16T02:19:01.651Z,10.95
2023-01-16T02:21:54.063Z,10.40
2023-01-16T02:24:58.310Z,10.43
2023-01-16T02:28:03.080Z,11.50
2023-01-16T02:30:48.941Z,10.38
2023-01-16T02:33:32.029Z,11.00
2023-01-16T02:36:08.156Z,12.15
2023-01-16T02:38:58.647Z,11.35
2023-01-16T02:41:28.861Z,11.17
2023-01-16T02:44:00.755Z,12.40
2023-01-16T02:46:46.753Z,11.98
2023-01-16T02:49:23.930Z,12.50
2023-01-16T02:51:59.935Z,12.57
2023-01-16T02:54:41.904Z,12.68
2023-01-16T02:57:11.637Z,10.85
2023-01-16T02:59:41.343Z,13.47
2023-01-16T03:02:09.733Z,12.77
2023-01-16T03:04:37.306Z,12.60
2023-01-16T03:07:13.743Z,11.43
2023-01-16T03:10:01.868Z,11.95
2023-01-16T03:12:54.023Z,11.00
2023-01-16T03:15:39.812Z,10.27
2023-01-16T03:18:11.746Z,11.73
2023-01-16T03:20:53.276Z,11.57
2023-01-16T03:23:30.261Z,11.57
2023-01-16T03:26:02.234Z,11.30
2023-01-16T03:28:36.029Z,11.68
2023-01-16T03:31:38.466Z,12.05
2023-01-16T03:34:10.103Z,11.65
2023-01-16T03:36:43.256Z,11.70
2023-01-16T03:39:11.396Z,13.02
2023-01-16T03:41:39.271Z,12.05
2023-01-16T03:44:09.678Z,11.02
2023-01-16T03:46:49.037Z,12.27
2023-01-16T03:49:38.319Z,11.77
2023-01-16T03:52:06.229Z,11.10
2023-01-16T03:54:53.851Z,11.13
2023-01-16T03:57:25.496Z,10.80
2023-01-16T03:59:53.308Z,12.65
2023-01-16T04:02:29.382Z,13.15
2023-01-16T04:05:04.949Z,11.95
2023-01-16T04:07:45.639Z,13.63
2023-01-16T04:10:16.332Z,11.15
2023-01-16T04:12:52.009Z,12.77
2023-01-16T04:15:19.454Z,10.70
2023-01-16T04:17:46.690Z,12.55
2023-01-16T04:20:14.251Z,10.88
2023-01-16T04:22:41.753Z,11.02
2023-01-16T04:25:09.728Z,12.35
2023-01-16T04:27:39.029Z,12.45
2023-01-16T04:30:07.563Z,12.35
2023-01-16T04:32:34.928Z,13.07
2023-01-16T04:35:02.476Z,11.65
2023-01-16T04:37:30.131Z,11.75
2023-01-16T04:39:57.377Z,13.20
2023-01-16T04:42:24.596Z,13.40
2023-01-16T04:44:51.931Z,11.52
2023-01-16T04:47:19.194Z,12.98
2023-01-16T04:49:47.332Z,11.85
2023-01-16T04:52:14.723Z,10.52
2023-01-16T04:54:41.922Z,10.55
2023-01-16T04:57:09.268Z,9.55
2023-01-16T04:59:36.498Z,11.35
2023-01-16T05:02:03.843Z,13.38
2023-01-16T05:04:33.320Z,11.80
2023-01-16T05:07:00.566Z,12.05
2023-01-16T05:09:27.946Z,10.40
2023-01-16T05:11:55.216Z,11.00
2023-01-16T05:14:22.624Z,12.65
2023-01-16T05:16:49.938Z,13.13
2023-01-16T05:19:17.302Z,10.60
2023-01-16T05:21:44.701Z,11.20
2023-01-16T05:24:11.996Z,11.50
2023-01-16T05:26:42.187Z,11.20
2023-01-16T05:29:09.471Z,9.57
2023-01-16T05:31:37.724Z,12.25
2023-01-16T05:34:05.420Z,10.23
2023-01-16T05:36:33.144Z,11.63
2023-01-16T05:39:00.449Z,10.95
2023-01-16T05:41:29.150Z,10.23
2023-01-16T05:43:56.381Z,11.48
2023-01-16T05:46:25.622Z,12.93
2023-01-16T05:48:52.866Z,11.85
2023-01-16T05:51:20.288Z,11.73
2023-01-16T05:53:51.856Z,12.60
2023-01-16T05:56:21.167Z,14.73
2023-01-16T05:58:48.737Z,10.95
2023-01-16T06:01:16.053Z,13.43
2023-01-16T06:03:43.341Z,12.70
2023-01-16T06:06:10.611Z,13.02
2023-01-16T06:08:38.094Z,12.27
2023-01-16T06:11:10.150Z,12.45
2023-01-16T06:13:37.451Z,10.85
2023-01-16T06:16:08.162Z,11.37
2023-01-16T06:18:35.413Z,10.32
2023-01-16T06:21:03.186Z,11.55
2023-01-16T06:23:33.492Z,11.17
2023-01-16T06:26:02.100Z,13.02
2023-01-16T06:28:29.554Z,11.23
2023-01-16T06:30:57.224Z,12.90
2023-01-16T06:33:24.568Z,12.35
2023-01-16T06:35:52.176Z,14.30
2023-01-16T06:38:19.433Z,13.80
2023-01-16T06:40:46.945Z,11.35
2023-01-16T06:43:14.265Z,12.30
2023-01-16T06:45:41.510Z,10.82
2023-01-16T06:48:08.850Z,11.88
2023-01-16T06:50:36.362Z,11.10
2023-01-16T06:53:03.653Z,12.23
2023-01-16T06:55:34.441Z,11.68
2023-01-16T06:58:01.802Z,11.07
2023-01-16T07:00:29.385Z,10.07
2023-01-16T07:02:57.374Z,11.68
2023-01-16T07:05:25.351Z,12.77
2023-01-16T07:07:52.713Z,11.75
2023-01-16T07:10:21.462Z,12.48
2023-01-16T07:12:49.814Z,12.10
2023-01-16T07:15:35.981Z,12.65
2023-01-16T07:18:21.694Z,12.00
2023-01-16T07:21:15.691Z,12.48
2023-01-16T07:23:45.238Z,11.82
2023-01-16T07:26:12.817Z,10.98
2023-01-16T07:28:41.948Z,12.27
2023-01-16T07:31:09.301Z,14.07
2023-01-16T07:33:36.799Z,12.23
2023-01-16T07:36:04.493Z,13.73
2023-01-16T07:38:32.195Z,12.45
2023-01-16T07:40:59.442Z,14.43
2023-01-16T07:43:29.271Z,13.77
2023-01-16T07:45:56.696Z,14.07
2023-01-16T07:48:24.065Z,13.70
2023-01-16T07:50:52.431Z,13.88
2023-01-16T07:53:22.565Z,14.88
2023-01-16T07:55:50.948Z,17.03
2023-01-16T07:58:18.588Z,15.82
2023-01-16T08:00:45.900Z,17.40
2023-01-16T08:03:14.674Z,16.85
2023-01-16T08:05:44.261Z,17.27
2023-01-16T08:08:12.546Z,17.52
2023-01-16T08:10:39.892Z,17.15
2023-01-16T08:13:07.189Z,19.35
2023-01-16T08:15:34.604Z,16.58
2023-01-16T08:18:01.887Z,15.68
2023-01-16T08:20:29.768Z,18.63
2023-01-16T08:22:59.010Z,17.65
2023-01-16T08:25:27.276Z,16.75
2023-01-16T08:27:54.508Z,17.45
2023-01-16T08:30:21.721Z,18.52
2023-01-16T08:32:49.120Z,17.55
2023-01-16T08:35:16.750Z,17.85
2023-01-16T08:37:50.495Z,18.65
2023-01-16T08:40:18.262Z,17.40
2023-01-16T08:43:03.974Z,18.27
2023-01-16T08:45:49.810Z,17.20
2023-01-16T08:48:39.459Z,16.38
2023-01-16T08:51:26.068Z,17.13
2023-01-16T08:53:54.779Z,17.33
2023-01-16T08:56:23.088Z,19.38
2023-01-16T08:58:50.469Z,18.95
2023-01-16T09:01:17.874Z,19.95
2023-01-16T09:03:45.841Z,18.35
2023-01-16T09:06:13.253Z,19.50
2023-01-16T09:08:40.473Z,20.58
2023-01-16T09:11:26.886Z,20.05
2023-01-16T09:13:54.238Z,20.63
2023-01-16T09:16:23.175Z,21.88
2023-01-16T09:18:50.504Z,21.80
2023-01-16T09:21:19.733Z,22.83
2023-01-16T09:23:47.412Z,25.92
2023-01-16T09:26:14.670Z,25.33
2023-01-16T09:28:41.926Z,25.77
2023-01-16T09:31:09.193Z,26.25
2023-01-16T09:33:38.152Z,28.08
2023-01-16T09:36:05.872Z,26.73
2023-01-16T09:38:34.434Z,25.05
2023-01-16T09:41:02.627Z,24.92
2023-01-16T09:43:43.719Z,23.50
2023-01-16T09:46:17.040Z,22.17
2023-01-16T09:48:56.401Z,20.50
2023-01-16T09:51:37.540Z,20.15
2023-01-16T09:54:37.431Z,22.13
2023-01-16T09:57:27.522Z,18.85
2023-01-16T09:59:55.433Z,19.63
2023-01-16T10:02:33.702Z,18.90
2023-01-16T10:05:03.634Z,18.55
2023-01-16T10:07:52.712Z,17.60
2023-01-16T10:10:30.721Z,19.50
2023-01-16T10:13:27.701Z,19.05
2023-01-16T10:16:20.994Z,16.70
2023-01-16T10:19:07.225Z,19.38
2023-01-16T10:21:40.327Z,16.92
2023-01-16T10:24:16.478Z,17.95
2023-01-16T10:26:59.590Z,16.83
2023-01-16T10:29:31.405Z,17.08
2023-01-16T10:32:04.585Z,18.83
2023-01-16T10:34:38.474Z,15.05
2023-01-16T10:37:05.871Z,18.35
2023-01-16T10:39:34.809Z,18.38
2023-01-16T10:42:31.289Z,15.73
2023-01-16T10:45:23.294Z,17.65
2023-01-16T10:48:12.236Z,17.73
2023-01-16T10:50:39.495Z,15.63
2023-01-16T10:53:07.124Z,17.50
2023-01-16T10:55:35.311Z,15.35
2023-01-16T10:58:05.593Z,19.25
2023-01-16T11:00:42.887Z,17.27
2023-01-16T11:03:18.114Z,17.25
2023-01-16T11:05:45.504Z,16.70
2023-01-16T11:08:19.947Z,16.98
2023-01-16T11:10:48.645Z,17.08
2023-01-16T11:13:38.729Z,18.60
2023-01-16T11:16:31.565Z,16.60
2023-01-16T11:18:59.534Z,16.50
2023-01-16T11:21:31.452Z,17.50
2023-01-16T11:24:00.407Z,16.67
2023-01-16T11:26:28.405Z,16.27
2023-01-16T11:28:55.933Z,17.17
2023-01-16T11:31:26.436Z,17.05
2023-01-16T11:33:58.368Z,17.38
2023-01-16T11:36:25.872Z,15.70
2023-01-16T11:38:53.083Z,15.15
2023-01-16T11:41:21.893Z,17.45
2023-01-16T11:44:48.394Z,16.45
2023-01-16T11:47:22.131Z,15.40
2023-01-16T11:49:51.461Z,16.17
2023-01-16T11:52:29.306Z,15.07
2023-01-16T11:55:04.472Z,16.92
2023-01-16T11:57:37.806Z,15.32
2023-01-16T12:00:08.375Z,15.07
2023-01-16T12:02:47.995Z,15.73
2023-01-16T12:05:44.277Z,14.70
2023-01-16T12:08:39.640Z,13.45
2023-01-16T12:11:29.675Z,14.05
2023-01-16T12:14:17.676Z,14.95
2023-01-16T12:17:22.379Z,14.27
2023-01-16T12:20:08.465Z,13.93
2023-01-16T12:23:15.947Z,16.23
2023-01-16T12:25:54.347Z,13.85
2023-01-16T12:28:43.234Z,17.05
2023-01-16T12:31:39.703Z,15.38
2023-01-16T12:34:30.242Z,15.52
2023-01-16T12:37:12.277Z,16.45
2023-01-16T12:40:04.160Z,15.00
2023-01-16T12:43:15.614Z,16.05
2023-01-16T12:46:02.015Z,14.43
2023-01-16T12:48:32.399Z,14.02
2023-01-16T12:51:18.370Z,14.57
2023-01-16T12:54:00.981Z,12.95
2023-01-16T12:56:46.691Z,14.63
2023-01-16T12:59:26.441Z,13.02
2023-01-16T13:01:57.833Z,14.40
2023-01-16T13:04:30.468Z,16.33
2023-01-16T13:06:58.320Z,15.77
2023-01-16T13:09:37.699Z,15.88
2023-01-16T13:12:42.120Z,15.90
2023-01-16T13:15:16.452Z,16.85
2023-01-16T13:17:50.079Z,14.93
2023-01-16T13:20:18.600Z,15.88
2023-01-16T13:22:53.353Z,15.35
2023-01-16T13:25:38.539Z,11.85
2023-01-16T13:28:30.675Z,12.90
2023-01-16T13:31:00.949Z,13.25
2023-01-16T13:33:30.659Z,12.80
2023-01-16T13:36:03.991Z,13.35
2023-01-16T13:38:56.671Z,13.25
2023-01-16T13:41:25.790Z,14.07
2023-01-16T13:44:27.418Z,13.00
2023-01-16T13:46:54.641Z,14.68
2023-01-16T13:49:23.516Z,14.65
2023-01-16T13:51:50.943Z,13.27
2023-01-16T13:54:25.173Z,12.95
2023-01-16T13:57:03.496Z,14.48
2023-01-16T13:59:38.225Z,15.10
2023-01-16T14:02:39.715Z,15.32
2023-01-16T14:05:07.758Z,15.90
2023-01-16T14:08:09.846Z,15.57
2023-01-16T14:10:47.617Z,15.70
2023-01-16T14:13:38.698Z,17.48
2023-01-16T14:16:38.487Z,22.48
2023-01-16T14:19:17.659Z,23.48
2023-01-16T14:22:05.152Z,21.23
2023-01-16T14:24:48.236Z,20.40
2023-01-16T14:27:16.885Z,21.63
2023-01-16T14:29:53.408Z,21.55
2023-01-16T14:32:21.713Z,21.15
2023-01-16T14:35:05.045Z,21.38
2023-01-16T14:37:47.232Z,21.45
2023-01-16T14:40:17.495Z,19.00
2023-01-16T14:43:03.732Z,20.73
2023-01-16T14:45:55.288Z,16.98
2023-01-16T14:48:41.279Z,16.63
2023-01-16T14:51:37.303Z,17.30
2023-01-16T14:54:26.266Z,17.80
2023-01-16T14:56:58.863Z,17.75
2023-01-16T14:59:32.037Z,17.38
2023-01-16T15:02:31.519Z,16.42
2023-01-16T15:05:05.214Z,16.77
2023-01-16T15:07:45.605Z,17.35
2023-01-16T15:10:16.690Z,16.45
2023-01-16T15:12:44.791Z,16.00
2023-01-16T15:15:29.597Z,15.50
2023-01-16T15:18:16.374Z,12.75
2023-01-16T15:21:05.489Z,13.38
2023-01-16T15:23:37.638Z,12.45
2023-01-16T15:26:04.937Z,12.27
2023-01-16T15:28:38.403Z,13.38
2023-01-16T15:31:19.222Z,11.55
2023-01-16T15:33:48.340Z,10.75
2023-01-16T15:36:24.994Z,10.05
2023-01-16T15:39:23.462Z,11.10
2023-01-16T15:42:14.133Z,11.10
2023-01-16T15:45:02.444Z,11.65
2023-01-16T15:47:39.294Z,11.13
2023-01-16T15:50:18.436Z,10.35
2023-01-16T15:52:45.684Z,10.90
2023-01-16T15:55:20.424Z,11.50
2023-01-16T15:57:49.503Z,11.48
2023-01-16T16:00:27.703Z,11.80
2023-01-16T16:03:10.756Z,10.80
2023-01-16T16:05:38.544Z,11.80
2023-01-16T16:08:07.248Z,11.82
2023-01-16T16:10:53.554Z,12.38
2023-01-16T16:13:20.854Z,13.07
2023-01-16T16:16:22.322Z,11.85
2023-01-16T16:18:58.517Z,10.68
2023-01-16T16:21:34.106Z,12.93
2023-01-16T16:24:03.743Z,10.57
2023-01-16T16:26:31.311Z,11.13
2023-01-16T16:29:00.686Z,10.70
2023-01-16T16:31:35.490Z,11.95
2023-01-16T16:34:07.908Z,10.98
2023-01-16T16:36:39.775Z,10.30
2023-01-16T16:39:37.840Z,10.40
2023-01-16T16:42:30.761Z,10.38
2023-01-16T16:45:28.371Z,9.65
2023-01-16T16:48:20.501Z,10.43
2023-01-16T16:50:47.855Z,8.52
2023-01-16T16:53:16.503Z,9.93
2023-01-16T16:55:47.008Z,9.27
2023-01-16T16:58:22.848Z,10.27
2023-01-16T17:00:50.896Z,10.00
2023-01-16T17:03:22.342Z,9.23
2023-01-16T17:05:52.705Z,7.95
2023-01-16T17:08:24.434Z,8.33
2023-01-16T17:10:51.915Z,8.30
2023-01-16T17:13:19.886Z,8.82
2023-01-16T17:15:49.938Z,8.82
2023-01-16T17:18:17.178Z,10.10
2023-01-16T17:20:44.582Z,8.48
2023-01-16T17:23:14.320Z,9.30
2023-01-16T17:25:45.599Z,8.75
2023-01-16T17:28:12.923Z,8.85
2023-01-16T17:30:40.197Z,8.23
2023-01-16T17:33:11.102Z,8.98
2023-01-16T17:35:41.700Z,8.50
2023-01-16T17:38:19.495Z,7.55
2023-01-16T17:40:46.868Z,8.10
2023-01-16T17:43:41.761Z,8.30
2023-01-16T17:46:16.521Z,6.72
2023-01-16T17:48:43.872Z,8.68
2023-01-16T17:51:11.360Z,8.75
2023-01-16T17:53:38.627Z,8.35
2023-01-16T17:56:07.204Z,8.13
2023-01-16T17:58:47.988Z,9.02
2023-01-16T18:01:22.887Z,8.20
2023-01-16T18:04:07.467Z,8.52
2023-01-16T18:06:35.361Z,7.85
2023-01-16T18:09:08.083Z,7.85
2023-01-16T18:11:55.183Z,6.40
2023-01-16T18:14:41.813Z,7.88
2023-01-16T18:17:24.865Z,8.40
2023-01-16T18:19:56.774Z,7.50
2023-01-16T18:22:28.162Z,7.15
2023-01-16T18:27:22.644Z,6.45
2023-01-16T18:29:49.998Z,6.05
2023-01-16T18:32:43.519Z,6.45
2023-01-16T18:35:10.804Z,6.18
2023-01-16T18:37:40.243Z,7.43
2023-01-16T18:40:30.891Z,7.05
2023-01-16T18:43:17.040Z,6.45
2023-01-16T18:46:02.916Z,5.65
2023-01-16T18:48:49.460Z,6.97
2023-01-16T18:51:36.263Z,5.55
2023-01-16T18:54:31.295Z,5.15
2023-01-16T18:57:16.989Z,6.15
2023-01-16T19:00:07.531Z,6.13
2023-01-16T19:02:45.060Z,6.55
2023-01-16T19:05:13.079Z,5.93
2023-01-16T19:07:45.432Z,6.47
2023-01-16T19:10:15.836Z,5.95
2023-01-16T19:12:43.120Z,6.28
2023-01-16T19:15:10.954Z,5.70
2023-01-16T19:17:38.323Z,6.53
2023-01-16T19:20:06.289Z,7.00
2023-01-16T19:22:33.726Z,5.78
2023-01-16T19:25:00.930Z,6.43
2023-01-16T19:27:28.511Z,5.82
2023-01-16T19:29:55.696Z,5.95
2023-01-16T19:32:23.037Z,5.07
2023-01-16T19:34:53.202Z,6.15
2023-01-16T19:37:20.896Z,5.63
2023-01-16T19:39:48.142Z,4.68
2023-01-16T19:42:34.771Z,5.22
2023-01-16T19:45:20.805Z,5.28
2023-01-16T19:47:48.041Z,5.63
2023-01-16T19:50:15.668Z,6.15
2023-01-16T19:52:42.889Z,5.55
2023-01-16T19:55:11.368Z,5.47
2023-01-16T19:57:38.722Z,5.75
2023-01-16T20:00:07.180Z,5.90
2023-01-16T20:02:35.240Z,6.13
2023-01-16T20:05:02.706Z,6.03
2023-01-16T20:07:30.128Z,6.32
2023-01-16T20:09:57.386Z,6.35
2023-01-16T20:12:25.068Z,6.57
2023-01-16T20:14:52.931Z,5.40
2023-01-16T20:17:21.723Z,5.43
2023-01-16T20:19:50.427Z,6.47
2023-01-16T20:22:33.805Z,4.45
2023-01-16T20:25:02.719Z,5.70
2023-01-16T20:27:30.565Z,5.65
2023-01-16T20:29:57.776Z,6.72
2023-01-16T20:32:27.451Z,5.25
2023-01-16T20:34:55.840Z,6.10
2023-01-16T20:37:23.240Z,5.53
2023-01-16T20:39:53.079Z,5.38
2023-01-16T20:42:38.872Z,6.32
2023-01-16T20:45:25.256Z,4.88
2023-01-16T20:47:52.470Z,5.45
2023-01-16T20:50:19.782Z,5.43
2023-01-16T20:52:48.808Z,5.68
2023-01-16T20:55:19.293Z,5.55
2023-01-16T20:57:50.929Z,5.28
2023-01-16T21:00:19.851Z,5.63
2023-01-16T21:02:47.261Z,6.00
2023-01-16T21:05:14.626Z,5.88
2023-01-16T21:07:42.461Z,5.03
2023-01-16T21:10:10.595Z,5.30
2023-01-16T21:12:56.843Z,4.53
2023-01-16T21:15:24.141Z,5.25
2023-01-16T21:18:10.063Z,6.53
2023-01-16T21:20:55.877Z,5.25
2023-01-16T21:23:23.204Z,5.03
2023-01-16T21:25:59.568Z,5.38
2023-01-16T21:28:27.415Z,5.10
2023-01-16T21:30:54.684Z,5.25
2023-01-16T21:33:21.943Z,5.20
2023-01-16T21:35:52.200Z,4.57
2023-01-16T21:38:19.435Z,5.78
2023-01-16T21:40:46.839Z,5.82
2023-01-16T21:43:47.139Z,5.57
2023-01-16T21:46:29.610Z,4.75
2023-01-16T21:48:57.255Z,5.13
2023-01-16T21:51:27.607Z,4.82
2023-01-16T21:53:55.792Z,5.35
2023-01-16T21:56:23.650Z,4.53
2023-01-16T21:58:51.819Z,5.82
2023-01-16T22:01:19.839Z,5.57
2023-01-16T22:03:47.324Z,4.88
2023-01-16T22:06:14.587Z,5.65
2023-01-16T22:08:42.140Z,5.28
2023-01-16T22:11:29.205Z,5.40
2023-01-16T22:14:15.237Z,6.03
2023-01-16T22:17:01.048Z,4.55
2023-01-16T22:19:35.163Z,5.07
2023-01-16T22:22:02.417Z,5.47
2023-01-16T22:24:29.935Z,5.10
2023-01-16T22:26:57.421Z,5.82
2023-01-16T22:29:24.803Z,4.82
2023-01-16T22:31:52.058Z,5.95
2023-01-16T22:34:19.320Z,4.85
2023-01-16T22:36:48.693Z,4.88
2023-01-16T22:39:17.679Z,4.45
2023-01-16T22:41:47.097Z,5.18
2023-01-16T22:44:33.095Z,5.90
2023-01-16T22:47:01.917Z,4.53
2023-01-16T22:49:29.726Z,6.22
2023-01-16T22:51:57.125Z,5.43
2023-01-16T22:54:24.425Z,4.80
2023-01-16T22:56:51.732Z,5.50
2023-01-16T22:59:19.303Z,4.57
2023-01-16T23:01:46.950Z,4.50
2023-01-16T23:04:14.156Z,5.13
2023-01-16T23:06:41.447Z,6.13
2023-01-16T23:09:08.880Z,5.57
2023-01-16T23:11:37.480Z,4.90
2023-01-16T23:14:07.293Z,4.75
2023-01-16T23:16:36.882Z,5.53
2023-01-16T23:19:05.710Z,4.63
2023-01-16T23:21:35.750Z,4.93
2023-01-16T23:24:04.296Z,5.30
2023-01-16T23:26:32.519Z,5.63
2023-01-16T23:29:01.257Z,6.53
2023-01-16T23:31:28.739Z,5.72
2023-01-16T23:33:56.024Z,5.25
2023-01-16T23:36:27.076Z,6.00
2023-01-16T23:38:54.338Z,5.63
2023-01-16T23:41:46.851Z,5.13
2023-01-16T23:44:34.902Z,6.03
2023-01-16T23:47:02.026Z,4.30
2023-01-16T23:49:33.959Z,5.68
2023-01-16T23:52:01.715Z,5.10
2023-01-16T23:54:29.555Z,5.57
2023-01-16T23:56:56.875Z,5.15
2023-01-16T23:59:24.124Z,4.35
